Flight Track Log - Related Links

Times and Time Zones

All times are in EDT time to prevent confusion due to time zone crossing. See the GJS3629 flight status page for this flight to view local times or setup timezone preferences in your user account.

Time Position Orientation Groundspeed Altitude Reporting Facility
EDT Latitude Longitude Course Direction KTS MPH feet Rate Location/Type
Thu 12:21:37 PM 39.8667 -104.5833 108° East 192 221 7,100  Level Denver TRACON
Thu 12:22:37 PM 39.8500 -104.5000 105° East 246 283 8,900 1,660 Climbing Denver TRACON
Thu 12:23:11 PM 39.8300 -104.4514 118° Southeast 249 287 9,700 1,423 Climbing Denver Center
Thu 12:24:00 PM 39.7735 -104.0943 101° East  Level FlightAware Approximate
Thu 12:24:14 PM 39.8097 -104.3458 104° East 301 346 11,200  Level Denver Center
Thu 12:25:00 PM 39.7667 -103.9498 90° East  Level FlightAware Approximate
Thu 12:25:15 PM 39.7956 -104.2144 98° East 341 392 12,700  Level Denver Center
Thu 12:26:00 PM 39.7476 -103.8070 108° East  Level FlightAware Approximate
Thu 12:26:17 PM 39.7803 -104.0828 99° East 364 419 14,800  Level Denver Center
Thu 12:27:19 PM 39.7656 -103.9411 98° East 369 425 17,000 1,887 Climbing Denver Center
Thu 12:28:21 PM 39.7481 -103.8053 99° East 380 437 18,700 1,548 Climbing Denver Center
Thu 12:29:23 PM 39.7339 -103.6672 98° East 381 438 20,200 1,645 Climbing Denver Center
Thu 12:30:25 PM 39.7239 -103.5261 95° East 389 448 22,100 1,488 Climbing Denver Center
Thu 12:31:28 PM 39.7117 -103.3833 96° East 397 457 23,300 1,248 Climbing Denver Center
Thu 12:32:30 PM 39.7008 -103.2350 95° East 410 472 24,700 1,500 Climbing Denver Center
Thu 12:33:32 PM 39.6864 -103.0553 96° East 417 480 26,400 1,403 Climbing Denver Center
Thu 12:34:34 PM 39.6731 -102.9036 96° East 423 487 27,600 1,065 Climbing Denver Center
Thu 12:35:36 PM 39.6589 -102.7494 97° East 430 495 28,600 927 Climbing Denver Center
Thu 12:36:37 PM 39.6464 -102.6056 96° East 438 504 29,500 1,016 Climbing Denver Center
Thu 12:37:40 PM 39.6306 -102.4275 97° East 445 512 30,700 1,104 Climbing Denver Center
Thu 12:38:42 PM 39.6150 -102.2486 96° East 448 516 31,800 968 Climbing Denver Center
Thu 12:39:44 PM 39.6022 -102.0953 96° East 449 517 32,700 1,016 Climbing Denver Center
Thu 12:40:46 PM 39.5861 -101.9172 97° East 446 513 33,900 1,016 Climbing Denver Center
Thu 12:41:48 PM 39.5739 -101.7656 96° East 443 510 34,800 871 Climbing Denver Center
Thu 12:42:50 PM 39.5594 -101.5892 96° East 442 509 35,700 823 Climbing Denver Center
Thu 12:43:52 PM 39.5472 -101.4378 96° East 443 510 36,500 823 Climbing Denver Center
Thu 12:44:54 PM 39.5233 -101.2625 100° East 444 511 37,400 774 Climbing Denver Center
Thu 12:45:56 PM 39.5017 -101.1147 101° East 440 506 38,100 774 Climbing Denver Center
Thu 12:46:58 PM 39.4764 -100.9453 101° East 433 498 39,000 435 Climbing Denver Center
Thu 12:48:00 PM 39.4547 -100.8019 101° East 428 493 39,000  Level Denver Center
Thu 12:49:02 PM 39.4283 -100.6308 101° East 433 498 39,000  Level Denver Center
Thu 12:50:16 PM 39.4056 -100.4811 101° East 440 506 39,000  Level Denver Center
Thu 12:51:19 PM 39.3753 -100.2856 101° East 438 504 39,000  Level Denver Center
Thu 12:52:21 PM 39.3519 -100.1381 102° East 440 506 39,000  Level Denver Center
Thu 12:53:23 PM 39.3242 -99.9658 102° East 440 506 39,000  Level Denver Center
Thu 12:54:25 PM 39.3014 -99.8214 101° East 432 497 39,000  Level Denver Center
Thu 12:55:27 PM 39.2736 -99.6519 102° East 431 496 39,000  Level Denver Center
Thu 12:56:29 PM 39.2503 -99.5056 102° East 434 499 39,000  Level Denver Center
Thu 12:57:31 PM 39.2228 -99.3369 102° East 433 498 39,000  Level Denver Center
Thu 12:58:33 PM 39.1981 -99.1928 102° East 432 497 39,000  Level Denver Center
Thu 12:59:36 PM 39.1703 -99.0261 102° East 432 497 39,000  Level Denver Center
Thu 01:00:38 PM 39.1472 -98.8875 102° East 429 494 39,000  Level Denver Center
Thu 01:01:40 PM 39.1208 -98.7356 103° East 434 499 39,000  Level Denver Center
Thu 01:02:42 PM 39.0900 -98.5542 102° East 433 498 39,000  Level Denver Center
Thu 01:04:09 PM 39.0522 -98.3325 102° East 438 504 39,000  Level Kansas City Center
Thu 01:05:11 PM 39.0250 -98.1789 103° East 439 505 39,000  Level Kansas City Center
Thu 01:06:12 PM 38.9978 -98.0247 103° East 441 507 39,000  Level Kansas City Center
Thu 01:07:14 PM 38.9708 -97.8692 103° East 443 510 39,000  Level Kansas City Center
Thu 01:08:16 PM 38.9397 -97.6953 103° East 445 512 39,000  Level Kansas City Center
Thu 01:09:18 PM 38.9292 -97.5461 95° East 440 506 39,000  Level Kansas City Center
Thu 01:10:19 PM 38.9411 -97.4019 84° East 435 501 39,000  Level Kansas City Center
Thu 01:11:21 PM 38.9497 -97.2458 86° East 436 502 39,000  Level Kansas City Center
Thu 01:13:25 PM 38.9692 -96.9014 86° East 439 505 39,000  Level Kansas City Center
Thu 01:14:26 PM 38.9803 -96.7431 85° East 442 509 39,000  Level Kansas City Center
Thu 01:15:28 PM 38.9894 -96.5872 86° East 439 505 39,000  Level Kansas City Center
Thu 01:16:30 PM 38.9958 -96.4239 87° East 443 510 39,000  Level Kansas City Center
Thu 01:17:32 PM 39.0047 -96.2492 86° East 439 505 39,000  Level Kansas City Center
Thu 01:18:33 PM 39.0125 -96.0989 86° East 440 506 39,000  Level Kansas City Center
Thu 01:19:35 PM 39.0194 -95.9483 87° East 441 507 39,000  Level Kansas City Center
Thu 01:20:37 PM 39.0286 -95.7731 86° East 441 507 39,000  Level Kansas City Center
Thu 01:21:39 PM 39.0358 -95.6231 86° East 441 507 39,000  Level Kansas City Center
Thu 01:22:41 PM 39.0442 -95.4397 87° East 442 509 39,000  Level Kansas City Center
Thu 01:23:42 PM 39.0500 -95.2825 87° East 442 509 39,000  Level Kansas City Center
Thu 01:24:44 PM 39.0575 -95.1236 86° East 447 514 39,000  Level Kansas City Center
Thu 01:25:46 PM 39.0636 -94.9747 87° East 443 510 39,000  Level Kansas City Center
Thu 01:26:48 PM 39.0708 -94.7969 87° East 448 516 39,000  Level Kansas City Center
Thu 01:27:50 PM 39.0764 -94.6439 87° East 450 518 39,000  Level Kansas City Center
Thu 01:28:51 PM 39.0836 -94.4653 87° East 448 516 39,000  Level Kansas City Center
Thu 01:29:53 PM 39.0894 -94.3119 87° East 449 517 39,000  Level Kansas City Center
Thu 01:30:55 PM 39.0942 -94.1328 88° East 449 517 39,000  Level Kansas City Center
Thu 01:31:57 PM 39.0706 -93.9817 101° East 448 516 39,000 -242 Level Kansas City Center
Thu 01:32:59 PM 39.0425 -93.8058 102° East 448 516 38,500 -732 Descending Kansas City Center
Thu 01:34:00 PM 39.0183 -93.6572 102° East 444 511 37,500 -976 Descending Kansas City Center
Thu 01:35:02 PM 38.9972 -93.5058 100° East 444 511 36,500 -968 Descending Kansas City Center
Thu 01:36:04 PM 38.9706 -93.3536 103° East 438 504 35,500 -968 Descending Kansas City Center
Thu 01:37:06 PM 38.9458 -93.1981 102° East 441 507 34,500 -1,065 Descending Kansas City Center
Thu 01:38:08 PM 38.9142 -93.0128 102° East 441 507 33,300 -1,073 Descending Kansas City Center
Thu 01:39:09 PM 38.8872 -92.8589 103° East 441 507 32,300 -1,317 Descending Kansas City Center
Thu 01:40:11 PM 38.8611 -92.7039 102° East 442 509 30,600 -1,790 Descending Kansas City Center
Thu 01:41:13 PM 38.8342 -92.5508 103° East 440 506 28,600 -1,935 Descending Kansas City Center
Thu 01:42:15 PM 38.8083 -92.4000 102° East 437 503 26,600 -1,887 Descending Kansas City Center
Thu 01:43:17 PM 38.7833 -92.2561 103° East 420 483 24,700 -1,694 Descending Kansas City Center
Thu 01:44:19 PM 38.7589 -92.1197 103° East 400 460 23,100 -1,512 Descending Kansas City Center
Thu 01:45:20 PM 38.7339 -91.9811 103° East 397 457 21,600 -1,659 Descending Kansas City Center
Thu 01:46:22 PM 38.7044 -91.8183 103° East 392 451 19,700 -1,742 Descending Kansas City Center
Thu 01:47:24 PM 38.6908 -91.6903 98° East 376 433 18,000 -1,452 Descending Kansas City Center
Thu 01:48:26 PM 38.6939 -91.5608 88° East 366 421 16,700 -1,403 Descending Kansas City Center
Thu 01:49:28 PM 38.6942 -91.4292 90° East 366 421 15,100 -1,561 Descending Kansas City Center
Thu 01:50:29 PM 38.6939 -91.3042 90° East 362 417 13,500 -1,512 Descending Kansas City Center
Thu 01:51:31 PM 38.6944 -91.1839 90° East 352 405 12,000 -1,306 Descending Kansas City Center
Thu 01:52:33 PM 38.7103 -91.0706 80° East 342 394 10,800 -1,355 Descending Kansas City Center
Thu 01:53:35 PM 38.7528 -90.9772 60° Northeast 316 364 9,200 -1,854 Descending Kansas City Center
Thu 01:54:36 PM 38.7889 -90.8697 67° East 294 338 7,000 -1,805 Descending Kansas City Center
Thu 01:55:38 PM 38.8036 -90.7728 79° East 283 326 5,500 -1,306 Descending Kansas City Center
Thu 01:56:40 PM 38.8183 -90.6794 79° East 274 315 4,300 -919 Descending Kansas City Center
Thu 01:57:42 PM 38.8200 -90.5889 89° East 259 298 3,600 -677 Descending Kansas City Center

Login

Don't have an account? Register now (free) for customized features, flight alerts, and more!